createdAt,value
2023-04-15T00:00:17.740Z,87.31
2023-04-15T00:01:20.850Z,87.27
2023-04-15T00:02:22.992Z,87.37
2023-04-15T00:03:25.344Z,88.23
2023-04-15T00:04:28.357Z,87.93
2023-04-15T00:05:31.100Z,87.47
2023-04-15T00:06:33.295Z,86.90
2023-04-15T00:07:35.982Z,87.42
2023-04-15T00:08:37.862Z,87.55
2023-04-15T00:09:39.706Z,87.22
2023-04-15T00:10:44.191Z,86.89
2023-04-15T00:11:46.455Z,87.63
2023-04-15T00:12:48.320Z,87.55
2023-04-15T00:13:50.261Z,87.73
2023-04-15T00:14:52.247Z,87.89
2023-04-15T00:15:54.118Z,88.46
2023-04-15T00:16:57.399Z,89.07
2023-04-15T00:17:59.337Z,88.76
2023-04-15T00:19:01.525Z,88.77
2023-04-15T00:20:06.370Z,89.01
2023-04-15T00:21:09.019Z,89.06
2023-04-15T00:22:11.435Z,88.90
2023-04-15T00:23:13.676Z,88.69
2023-04-15T00:24:15.681Z,86.97
2023-04-15T00:25:18.049Z,87.19
2023-04-15T00:26:20.774Z,86.44
2023-04-15T00:27:23.890Z,86.64
2023-04-15T00:28:26.304Z,87.48
2023-04-15T00:29:28.484Z,87.04
2023-04-15T00:30:30.434Z,87.03
2023-04-15T00:31:32.953Z,85.32
2023-04-15T00:32:35.586Z,85.53
2023-04-15T00:33:37.523Z,87.62
2023-04-15T00:34:39.513Z,87.99
2023-04-15T00:35:43.067Z,87.99
2023-04-15T00:36:44.988Z,87.72
2023-04-15T00:37:47.195Z,87.54
2023-04-15T00:38:49.341Z,87.83
2023-04-15T00:39:51.747Z,87.85
2023-04-15T00:40:53.914Z,87.54
2023-04-15T00:41:55.985Z,88.95
2023-04-15T00:42:58.171Z,88.36
2023-04-15T00:44:02.343Z,89.09
2023-04-15T00:45:05.497Z,88.12
2023-04-15T00:46:07.929Z,87.90
2023-04-15T00:47:10.506Z,87.55
2023-04-15T00:48:13.127Z,86.93
2023-04-15T00:49:16.075Z,86.81
2023-04-15T00:50:17.939Z,86.66
2023-04-15T00:51:20.170Z,86.16
2023-04-15T00:52:22.661Z,87.39
2023-04-15T00:53:26.060Z,87.44
2023-04-15T00:54:27.924Z,86.97
2023-04-15T00:55:30.067Z,87.65
2023-04-15T00:56:36.044Z,87.54
2023-04-15T00:57:39.299Z,87.59
2023-04-15T00:58:42.171Z,86.77
2023-04-15T00:59:44.113Z,85.64
2023-04-15T01:00:46.770Z,84.69
2023-04-15T01:01:48.893Z,84.97
2023-04-15T01:02:50.979Z,84.94
2023-04-15T01:03:54.010Z,85.13
2023-04-15T01:04:56.767Z,85.69
2023-04-15T01:06:00.848Z,85.66
2023-04-15T01:07:04.339Z,85.77
2023-04-15T01:08:06.616Z,86.63
2023-04-15T01:09:08.776Z,86.33
2023-04-15T01:10:10.847Z,86.13
2023-04-15T01:11:13.853Z,86.03
2023-04-15T01:12:17.384Z,86.72
2023-04-15T01:13:19.950Z,87.37
2023-04-15T01:14:22.158Z,87.77
2023-04-15T01:15:25.006Z,86.71
2023-04-15T01:16:28.773Z,86.07
2023-04-15T01:17:30.851Z,86.13
2023-04-15T01:18:33.924Z,85.30
2023-04-15T01:19:39.872Z,85.01
2023-04-15T01:20:41.857Z,85.52
2023-04-15T01:21:43.842Z,85.75
2023-04-15T01:22:45.771Z,86.20
2023-04-15T01:23:48.957Z,85.69
2023-04-15T01:24:59.957Z,86.21
2023-04-15T01:26:02.601Z,86.47
2023-04-15T01:27:05.602Z,85.62
2023-04-15T01:28:09.540Z,84.89
2023-04-15T01:29:11.931Z,85.29
2023-04-15T01:30:14.140Z,85.56
2023-04-15T01:31:16.539Z,85.77
2023-04-15T01:32:18.756Z,86.12
2023-04-15T01:33:20.584Z,86.37
2023-04-15T01:34:22.747Z,87.16
2023-04-15T01:35:28.631Z,86.75
2023-04-15T01:36:30.706Z,86.80
2023-04-15T01:37:33.150Z,87.61
2023-04-15T01:38:35.068Z,87.37
2023-04-15T01:39:36.918Z,87.60
2023-04-15T01:40:39.493Z,87.74
2023-04-15T01:41:42.404Z,88.12
2023-04-15T01:42:44.605Z,88.89
2023-04-15T01:43:46.741Z,88.43
2023-04-15T01:44:48.633Z,88.17
2023-04-15T01:45:51.227Z,88.07
2023-04-15T01:46:53.321Z,88.15
2023-04-15T01:47:55.500Z,88.77
2023-04-15T01:48:57.651Z,88.61
2023-04-15T01:50:00.215Z,88.61
2023-04-15T01:51:03.973Z,88.41
2023-04-15T01:52:06.000Z,87.84
2023-04-15T01:53:08.684Z,87.89
2023-04-15T01:54:10.547Z,88.35
2023-04-15T01:55:13.311Z,88.25
2023-04-15T01:56:16.971Z,88.21
2023-04-15T01:57:18.982Z,88.59
2023-04-15T01:58:22.026Z,88.33
2023-04-15T01:59:24.357Z,88.12
2023-04-15T02:00:26.680Z,87.87
2023-04-15T02:01:28.876Z,88.58
2023-04-15T02:02:34.644Z,89.35
2023-04-15T02:03:38.881Z,88.56
2023-04-15T02:04:40.840Z,87.67
2023-04-15T02:05:42.771Z,87.11
2023-04-15T02:06:46.369Z,87.49
2023-04-15T02:07:49.535Z,87.71
2023-04-15T02:08:51.454Z,88.22
2023-04-15T02:09:53.355Z,88.24
2023-04-15T02:10:55.342Z,87.38
2023-04-15T02:11:57.741Z,87.64
2023-04-15T02:12:59.609Z,88.11
2023-04-15T02:14:07.097Z,88.18
2023-04-15T02:15:10.384Z,88.32
2023-04-15T02:16:19.616Z,88.08
2023-04-15T02:17:21.698Z,87.71
2023-04-15T02:18:23.683Z,88.39
2023-04-15T02:19:26.108Z,88.24
2023-04-15T02:20:28.307Z,88.57
2023-04-15T02:21:33.153Z,88.13
2023-04-15T02:22:35.257Z,88.04
2023-04-15T02:23:37.166Z,87.52
2023-04-15T02:24:39.422Z,87.96
2023-04-15T02:25:41.524Z,88.59
2023-04-15T02:26:43.526Z,88.62
2023-04-15T02:27:45.721Z,88.53
2023-04-15T02:28:47.624Z,88.31
2023-04-15T02:29:52.831Z,88.15
2023-04-15T02:30:57.614Z,87.98
2023-04-15T02:31:59.524Z,88.11
2023-04-15T02:33:02.606Z,88.06
2023-04-15T02:34:04.744Z,87.58
2023-04-15T02:35:09.008Z,87.98
2023-04-15T02:36:12.519Z,87.62
2023-04-15T02:37:14.513Z,87.96
2023-04-15T02:38:17.964Z,88.61
2023-04-15T02:39:20.143Z,88.32
2023-04-15T02:40:22.822Z,87.58
2023-04-15T02:41:27.777Z,88.62
2023-04-15T02:42:30.452Z,88.08
2023-04-15T02:43:33.648Z,86.92
2023-04-15T02:44:36.559Z,88.04
2023-04-15T02:45:39.079Z,87.61
2023-04-15T02:46:41.349Z,87.53
2023-04-15T02:47:44.020Z,88.52
2023-04-15T02:48:46.002Z,88.05
2023-04-15T02:49:47.873Z,88.59
2023-04-15T02:50:50.085Z,89.50
2023-04-15T02:51:52.254Z,89.06
2023-04-15T02:52:54.348Z,88.55
2023-04-15T02:53:56.665Z,89.33
2023-04-15T02:55:00.796Z,88.66
2023-04-15T02:56:03.538Z,88.85
2023-04-15T02:57:06.871Z,89.55
2023-04-15T02:58:09.039Z,89.58
2023-04-15T02:59:12.388Z,89.20
2023-04-15T03:00:14.460Z,89.73
2023-04-15T03:01:16.932Z,90.10
2023-04-15T03:02:19.017Z,89.16
2023-04-15T03:03:21.126Z,89.82
2023-04-15T03:04:23.180Z,90.06
2023-04-15T03:05:25.495Z,89.76
2023-04-15T03:06:27.717Z,89.53
2023-04-15T03:07:29.868Z,89.28
2023-04-15T03:08:31.957Z,90.35
2023-04-15T03:09:33.807Z,90.53
2023-04-15T03:10:36.259Z,90.07
2023-04-15T03:11:40.774Z,89.84
2023-04-15T03:12:42.982Z,90.28
2023-04-15T03:13:45.123Z,90.28
2023-04-15T03:14:48.756Z,90.66
2023-04-15T03:15:50.861Z,91.63
2023-04-15T03:16:53.166Z,91.39
2023-04-15T03:17:55.146Z,91.59
2023-04-15T03:18:57.052Z,91.71
2023-04-15T03:19:59.393Z,91.78
2023-04-15T03:21:02.874Z,91.75
2023-04-15T03:22:05.644Z,92.18
2023-04-15T03:23:07.559Z,92.75
2023-04-15T03:24:09.554Z,91.94
2023-04-15T03:25:11.563Z,91.53
2023-04-15T03:26:30.104Z,90.71
2023-04-15T03:27:32.702Z,90.73
2023-04-15T03:28:35.024Z,89.98
2023-04-15T03:29:37.294Z,90.33
2023-04-15T03:30:39.267Z,90.58
2023-04-15T03:31:41.967Z,90.34
2023-04-15T03:32:44.143Z,90.59
2023-04-15T03:33:46.157Z,90.41
2023-04-15T03:34:48.354Z,90.28
2023-04-15T03:35:52.088Z,90.99
2023-04-15T03:36:54.048Z,91.95
2023-04-15T03:37:56.254Z,91.22
2023-04-15T03:38:58.645Z,91.37
2023-04-15T03:40:00.675Z,91.44
2023-04-15T03:41:02.543Z,91.74
2023-04-15T03:42:04.412Z,91.66
2023-04-15T03:43:06.704Z,90.33
2023-04-15T03:44:08.555Z,90.65
2023-04-15T03:45:10.917Z,91.11
2023-04-15T03:46:12.849Z,91.58
2023-04-15T03:47:14.756Z,91.48
2023-04-15T03:48:18.260Z,91.45
2023-04-15T03:49:22.981Z,91.78
2023-04-15T03:50:25.046Z,91.73
2023-04-15T03:51:26.935Z,90.77
2023-04-15T03:52:28.838Z,90.34
2023-04-15T03:53:31.017Z,90.21
2023-04-15T03:54:32.848Z,90.15
2023-04-15T03:55:34.677Z,89.73
2023-04-15T03:56:36.546Z,89.45
2023-04-15T03:57:39.392Z,89.77
2023-04-15T03:58:41.713Z,90.06
2023-04-15T03:59:43.905Z,90.95
2023-04-15T04:00:45.978Z,91.54
2023-04-15T04:01:48.378Z,92.17
2023-04-15T04:02:50.485Z,90.86
2023-04-15T04:03:52.750Z,90.27
2023-04-15T04:04:54.820Z,90.38
2023-04-15T04:05:56.744Z,90.74
2023-04-15T04:06:58.876Z,90.75
2023-04-15T04:08:00.699Z,90.12
2023-04-15T04:09:02.742Z,90.48
2023-04-15T04:10:05.186Z,90.53
2023-04-15T04:11:06.993Z,90.27
2023-04-15T04:12:09.200Z,90.47
2023-04-15T04:13:11.183Z,90.87
2023-04-15T04:14:13.112Z,90.33
2023-04-15T04:15:15.002Z,90.79
2023-04-15T04:16:17.313Z,91.59
2023-04-15T04:17:19.745Z,91.99
2023-04-15T04:18:22.468Z,92.09
2023-04-15T04:19:24.343Z,91.55
2023-04-15T04:20:26.253Z,89.79
2023-04-15T04:21:28.204Z,89.85
2023-04-15T04:22:30.648Z,90.93
2023-04-15T04:23:33.173Z,91.48
2023-04-15T04:24:35.028Z,91.93
2023-04-15T04:25:36.971Z,90.66
2023-04-15T04:26:38.822Z,91.51
2023-04-15T04:27:41.143Z,91.78
2023-04-15T04:28:43.007Z,90.82
2023-04-15T04:29:47.558Z,91.30
2023-04-15T04:30:49.534Z,91.45
2023-04-15T04:31:51.698Z,91.77
2023-04-15T04:32:53.993Z,91.46
2023-04-15T04:33:55.870Z,90.72
2023-04-15T04:34:57.723Z,90.44
2023-04-15T04:35:59.564Z,90.73
2023-04-15T04:37:01.488Z,90.67
2023-04-15T04:38:04.465Z,90.33
2023-04-15T04:39:06.335Z,90.73
2023-04-15T04:40:09.503Z,90.81
2023-04-15T04:41:11.405Z,89.74
2023-04-15T04:42:13.266Z,90.21
2023-04-15T04:43:16.139Z,89.59
2023-04-15T04:44:18.287Z,89.20
2023-04-15T04:45:20.526Z,88.47
2023-04-15T04:46:23.817Z,89.15
2023-04-15T04:47:25.850Z,89.52
2023-04-15T04:48:28.052Z,89.39
2023-04-15T04:49:29.914Z,88.06
2023-04-15T04:50:32.381Z,88.35
2023-04-15T04:51:34.405Z,87.25
2023-04-15T04:52:36.777Z,88.05
2023-04-15T04:53:39.007Z,88.79
2023-04-15T04:54:41.096Z,86.90
2023-04-15T04:55:42.986Z,87.14
2023-04-15T04:56:44.848Z,86.95
2023-04-15T04:57:47.397Z,86.60
2023-04-15T04:58:49.534Z,86.75
2023-04-15T04:59:51.376Z,87.34
2023-04-15T05:00:53.302Z,88.05
2023-04-15T05:01:55.540Z,88.83
2023-04-15T05:02:57.634Z,88.22
2023-04-15T05:04:00.496Z,88.06
2023-04-15T05:05:02.722Z,88.13
2023-04-15T05:06:06.585Z,88.74
2023-04-15T05:07:08.606Z,88.40
2023-04-15T05:08:10.461Z,88.02
2023-04-15T05:09:12.629Z,88.04
2023-04-15T05:10:15.351Z,87.22
2023-04-15T05:11:17.235Z,87.30
2023-04-15T05:12:19.136Z,88.27
2023-04-15T05:13:21.670Z,88.93
2023-04-15T05:14:23.899Z,88.12
2023-04-15T05:15:25.823Z,87.16
2023-04-15T05:16:27.869Z,88.31
2023-04-15T05:17:31.990Z,88.12
2023-04-15T05:18:34.486Z,87.91
2023-04-15T05:19:36.767Z,88.15
2023-04-15T05:20:38.702Z,88.76
2023-04-15T05:21:40.892Z,88.74
2023-04-15T05:22:42.845Z,88.51
2023-04-15T05:23:44.754Z,87.76
2023-04-15T05:24:46.994Z,88.18
2023-04-15T05:25:48.995Z,87.90
2023-04-15T05:26:51.156Z,86.52
2023-04-15T05:27:53.007Z,86.91
2023-04-15T05:28:55.096Z,87.14
2023-04-15T05:29:57.370Z,86.68
2023-04-15T05:30:59.298Z,87.76
2023-04-15T05:32:01.227Z,88.45
2023-04-15T05:33:03.828Z,88.15
2023-04-15T05:34:07.181Z,88.50
2023-04-15T05:35:09.496Z,86.72
2023-04-15T05:36:12.122Z,86.25
2023-04-15T05:37:14.199Z,86.61
2023-04-15T05:38:16.221Z,86.68
2023-04-15T05:39:18.214Z,87.50
2023-04-15T05:40:20.778Z,87.28
2023-04-15T05:41:22.664Z,88.11
2023-04-15T05:42:24.513Z,88.49
2023-04-15T05:43:26.516Z,88.18
2023-04-15T05:44:28.414Z,87.74
2023-04-15T05:45:30.585Z,88.37
2023-04-15T05:46:32.488Z,89.38
2023-04-15T05:47:35.045Z,88.49
2023-04-15T05:48:37.152Z,87.71
2023-04-15T05:49:39.011Z,87.80
2023-04-15T05:50:42.344Z,88.23
2023-04-15T05:51:44.221Z,89.41
2023-04-15T05:52:46.324Z,89.60
2023-04-15T05:53:48.229Z,89.70
2023-04-15T05:54:50.642Z,88.48
2023-04-15T05:55:52.873Z,87.66
2023-04-15T05:56:54.908Z,86.92
2023-04-15T05:57:57.230Z,86.65
2023-04-15T05:58:59.237Z,86.85
2023-04-15T06:00:01.569Z,86.20
2023-04-15T06:01:11.757Z,86.26
2023-04-15T06:02:14.261Z,85.96
2023-04-15T06:03:16.405Z,85.03
2023-04-15T06:04:18.369Z,86.35
2023-04-15T06:05:20.291Z,86.77
2023-04-15T06:06:22.360Z,85.54
2023-04-15T06:07:24.838Z,85.49
2023-04-15T06:08:27.852Z,85.44
2023-04-15T06:09:29.705Z,85.06
2023-04-15T06:10:36.375Z,83.83
2023-04-15T06:11:38.335Z,84.46
2023-04-15T06:12:40.520Z,84.50
2023-04-15T06:13:42.550Z,84.49
2023-04-15T06:14:44.498Z,84.54
2023-04-15T06:15:46.425Z,84.57
2023-04-15T06:16:48.259Z,83.35
2023-04-15T06:17:50.513Z,82.95
2023-04-15T06:18:52.408Z,81.66
2023-04-15T06:19:55.858Z,82.97
2023-04-15T06:20:57.961Z,83.99
2023-04-15T06:21:59.918Z,84.49
2023-04-15T06:23:02.062Z,85.05
2023-04-15T06:24:04.108Z,86.01
2023-04-15T06:25:08.299Z,87.45
2023-04-15T06:26:10.257Z,86.62
2023-04-15T06:27:12.156Z,84.90
2023-04-15T06:28:14.364Z,85.64
2023-04-15T06:29:16.316Z,86.18
2023-04-15T06:30:18.207Z,86.58
2023-04-15T06:31:20.186Z,86.32
2023-04-15T06:32:22.090Z,86.23
2023-04-15T06:33:24.331Z,85.58
2023-04-15T06:34:26.335Z,85.62
2023-04-15T06:35:28.642Z,85.61
2023-04-15T06:36:30.543Z,85.45
2023-04-15T06:37:32.713Z,85.48
2023-04-15T06:38:34.847Z,86.18
2023-04-15T06:39:37.244Z,86.02
2023-04-15T06:40:39.167Z,87.44
2023-04-15T06:41:41.152Z,85.94
2023-04-15T06:42:43.047Z,85.16
2023-04-15T06:43:45.256Z,84.70
2023-04-15T06:44:47.104Z,84.76
2023-04-15T06:45:48.981Z,84.11
2023-04-15T06:46:51.004Z,83.19
2023-04-15T06:47:52.940Z,83.19
2023-04-15T06:48:55.156Z,82.98
2023-04-15T06:49:57.028Z,82.02
2023-04-15T06:50:58.886Z,83.54
2023-04-15T06:52:01.619Z,83.87
2023-04-15T06:53:03.657Z,84.31
2023-04-15T06:54:06.349Z,82.00
2023-04-15T06:55:08.767Z,81.61
2023-04-15T06:56:10.963Z,81.11
2023-04-15T06:57:13.033Z,78.43
2023-04-15T06:58:14.914Z,77.03
2023-04-15T06:59:17.215Z,76.10
2023-04-15T07:00:19.652Z,75.63
2023-04-15T07:01:22.559Z,75.87
2023-04-15T07:02:24.703Z,75.20
2023-04-15T07:03:27.117Z,77.23
2023-04-15T07:04:29.417Z,79.09
2023-04-15T07:05:32.510Z,78.30
2023-04-15T07:06:35.566Z,79.67
2023-04-15T07:07:38.400Z,78.44
2023-04-15T07:08:40.470Z,77.91
2023-04-15T07:09:42.849Z,76.35
2023-04-15T07:10:44.844Z,75.97
2023-04-15T07:11:46.741Z,75.47
2023-04-15T07:12:49.210Z,75.24
2023-04-15T07:13:51.122Z,74.29
2023-04-15T07:14:53.339Z,73.27
2023-04-15T07:15:55.317Z,73.66
2023-04-15T07:16:57.734Z,71.82
2023-04-15T07:17:59.701Z,73.41
2023-04-15T07:19:01.754Z,72.04
2023-04-15T07:20:05.026Z,71.05
2023-04-15T07:21:06.955Z,70.82
2023-04-15T07:22:09.165Z,70.96
2023-04-15T07:23:11.108Z,72.31
2023-04-15T07:24:13.113Z,69.72
2023-04-15T07:25:15.379Z,69.79
2023-04-15T07:26:17.267Z,69.57
2023-04-15T07:27:19.128Z,69.55
2023-04-15T07:28:21.273Z,71.10
2023-04-15T07:29:23.195Z,70.84
2023-04-15T07:30:25.436Z,71.57
2023-04-15T07:31:27.508Z,71.06
2023-04-15T07:32:29.529Z,72.19
2023-04-15T07:33:31.548Z,71.15
2023-04-15T07:34:33.525Z,71.43
2023-04-15T07:35:35.839Z,70.31
2023-04-15T07:36:37.807Z,70.55
2023-04-15T07:37:39.792Z,70.87
2023-04-15T07:38:42.585Z,70.55
2023-04-15T07:39:44.470Z,70.53
2023-04-15T07:40:47.032Z,70.15
2023-04-15T07:41:49.330Z,69.74
2023-04-15T07:42:51.472Z,69.24
2023-04-15T07:43:53.395Z,69.92
2023-04-15T07:44:55.397Z,71.93
2023-04-15T07:45:57.707Z,75.99
2023-04-15T07:46:59.654Z,77.63
2023-04-15T07:48:02.554Z,65.26
2023-04-15T07:49:04.626Z,72.18
2023-04-15T07:50:06.935Z,68.06
2023-04-15T07:51:10.840Z,65.70
2023-04-15T07:52:12.689Z,65.92
2023-04-15T07:53:14.695Z,67.17
2023-04-15T07:54:16.863Z,67.79
2023-04-15T07:55:21.511Z,68.90
2023-04-15T07:56:23.754Z,70.67
2023-04-15T07:57:25.605Z,71.65
2023-04-15T07:58:27.503Z,71.14
2023-04-15T07:59:31.180Z,80.30
2023-04-15T08:00:33.334Z,78.74
2023-04-15T08:01:35.803Z,74.66
2023-04-15T08:02:39.048Z,66.52
2023-04-15T08:03:43.209Z,64.37
2023-04-15T08:04:45.364Z,67.83
2023-04-15T08:05:47.507Z,68.13
2023-04-15T08:06:50.438Z,66.12
2023-04-15T08:07:52.345Z,68.01
2023-04-15T08:08:57.320Z,68.40
2023-04-15T08:09:59.236Z,67.19
2023-04-15T08:11:01.232Z,66.32
2023-04-15T08:12:03.854Z,66.50
2023-04-15T08:13:06.053Z,67.20
2023-04-15T08:14:08.135Z,65.84
2023-04-15T08:15:10.399Z,67.18
2023-04-15T08:16:16.870Z,67.93
2023-04-15T08:17:19.107Z,67.22
2023-04-15T08:18:21.298Z,65.75
2023-04-15T08:19:24.290Z,62.26
2023-04-15T08:20:26.248Z,63.64
2023-04-15T08:21:30.829Z,63.76
2023-04-15T08:22:33.129Z,66.00
2023-04-15T08:23:34.961Z,62.87
2023-04-15T08:24:37.666Z,59.63
2023-04-15T08:25:41.380Z,57.63
2023-04-15T08:26:43.293Z,58.30
2023-04-15T08:27:46.206Z,57.34
2023-04-15T08:28:48.729Z,58.56
2023-04-15T08:29:50.683Z,57.52
2023-04-15T08:30:55.533Z,57.06
2023-04-15T08:31:57.847Z,58.68
2023-04-15T08:33:00.898Z,59.07
2023-04-15T08:34:03.600Z,60.72
2023-04-15T08:35:06.464Z,58.50
2023-04-15T08:36:09.131Z,58.63
2023-04-15T08:37:12.208Z,60.14
2023-04-15T08:38:15.156Z,60.16
2023-04-15T08:39:17.778Z,58.95
2023-04-15T08:40:21.153Z,58.71
2023-04-15T08:41:25.413Z,58.13
2023-04-15T08:42:49.003Z,57.91
2023-04-15T08:43:56.835Z,57.21
2023-04-15T08:45:01.757Z,57.45
2023-04-15T08:46:05.629Z,58.62
2023-04-15T08:47:09.078Z,58.68
2023-04-15T08:48:16.598Z,58.21
2023-04-15T08:49:20.823Z,60.60
2023-04-15T08:50:23.746Z,57.06
2023-04-15T08:51:26.579Z,54.53
2023-04-15T08:52:30.577Z,53.74
2023-04-15T08:53:32.693Z,54.12
2023-04-15T08:54:36.363Z,55.40
2023-04-15T08:55:47.373Z,54.78
2023-04-15T08:56:50.338Z,54.41
2023-04-15T08:57:52.257Z,54.07
2023-04-15T08:58:54.537Z,54.84
2023-04-15T08:59:57.703Z,53.21
2023-04-15T09:00:59.872Z,53.54
2023-04-15T09:02:02.827Z,55.63
2023-04-15T09:03:09.065Z,55.12
2023-04-15T09:04:12.585Z,55.47
2023-04-15T09:05:14.977Z,55.63
2023-04-15T09:06:17.930Z,57.14
2023-04-15T09:07:19.915Z,57.82
2023-04-15T09:08:22.235Z,56.65
2023-04-15T09:09:24.146Z,58.45
2023-04-15T09:10:26.502Z,57.63
2023-04-15T09:11:31.425Z,58.80
2023-04-15T09:12:36.214Z,59.86
2023-04-15T09:13:38.287Z,59.75
2023-04-15T09:14:42.583Z,60.76
2023-04-15T09:15:44.795Z,60.50
2023-04-15T09:16:59.144Z,59.35
2023-04-15T09:18:01.311Z,58.58
2023-04-15T09:19:21.712Z,59.34
2023-04-15T09:20:24.112Z,60.02
2023-04-15T09:21:26.476Z,60.17
2023-04-15T09:22:32.668Z,60.34
2023-04-15T09:23:36.282Z,62.85
2023-04-15T09:24:41.014Z,63.87
2023-04-15T09:25:43.190Z,62.11
2023-04-15T09:26:45.518Z,62.88
2023-04-15T09:27:51.789Z,62.77
2023-04-15T09:28:53.651Z,63.13
2023-04-15T09:29:55.667Z,62.08
2023-04-15T09:30:58.880Z,61.58
2023-04-15T09:32:14.093Z,62.54
2023-04-15T09:33:15.953Z,62.03
2023-04-15T09:34:18.002Z,59.89
2023-04-15T09:35:24.444Z,58.18
2023-04-15T09:36:29.737Z,57.93
2023-04-15T09:37:36.587Z,58.21
2023-04-15T09:38:56.231Z,56.38
2023-04-15T09:39:58.086Z,56.10
2023-04-15T09:41:00.298Z,55.35
2023-04-15T09:42:07.153Z,54.63
2023-04-15T09:43:13.025Z,54.42
2023-04-15T09:44:27.230Z,54.53
2023-04-15T09:45:29.967Z,53.16
2023-04-15T09:46:45.402Z,54.42
2023-04-15T09:47:47.315Z,55.71
2023-04-15T09:49:08.849Z,56.18
2023-04-15T09:50:10.877Z,55.60
2023-04-15T09:51:12.864Z,55.16
2023-04-15T09:52:14.811Z,56.42
2023-04-15T09:53:19.346Z,58.43
2023-04-15T09:54:21.579Z,57.92
2023-04-15T09:55:23.603Z,56.86
2023-04-15T09:56:34.796Z,57.22
2023-04-15T09:57:37.976Z,55.03
2023-04-15T09:58:41.706Z,55.05
2023-04-15T09:59:44.014Z,55.50
2023-04-15T10:00:48.706Z,56.27
2023-04-15T10:01:51.219Z,55.48
2023-04-15T10:02:53.400Z,56.65
2023-04-15T10:03:57.408Z,55.66
2023-04-15T10:05:00.494Z,57.40
2023-04-15T10:06:03.706Z,57.50
2023-04-15T10:07:06.450Z,57.80
2023-04-15T10:08:09.278Z,58.84
2023-04-15T10:09:11.624Z,60.05
2023-04-15T10:10:14.825Z,60.32
2023-04-15T10:11:20.013Z,59.89
2023-04-15T10:12:23.228Z,60.61
2023-04-15T10:13:27.189Z,59.56
2023-04-15T10:14:34.220Z,60.40
2023-04-15T10:15:36.661Z,60.61
2023-04-15T10:16:43.085Z,58.79
2023-04-15T10:17:45.829Z,59.79
2023-04-15T10:18:51.569Z,58.98
2023-04-15T10:19:55.081Z,59.81
2023-04-15T10:20:57.220Z,58.41
2023-04-15T10:21:59.965Z,59.43
2023-04-15T10:23:02.496Z,59.64
2023-04-15T10:24:06.218Z,59.83
2023-04-15T10:25:09.734Z,59.44
2023-04-15T10:26:14.805Z,58.81
2023-04-15T10:27:18.779Z,58.78
2023-04-15T10:28:24.948Z,57.65
2023-04-15T10:29:27.345Z,56.91
2023-04-15T10:30:29.307Z,57.75
2023-04-15T10:31:31.874Z,57.62
2023-04-15T10:32:34.447Z,56.56
2023-04-15T10:33:38.850Z,57.44
2023-04-15T10:34:41.524Z,57.49
2023-04-15T10:35:44.284Z,56.45
2023-04-15T10:36:47.337Z,56.64
2023-04-15T10:37:49.333Z,56.99
2023-04-15T10:38:51.593Z,56.78
2023-04-15T10:39:53.513Z,58.23
2023-04-15T10:41:31.390Z,58.87
2023-04-15T10:42:36.479Z,59.06
2023-04-15T10:43:38.366Z,59.33
2023-04-15T10:44:44.461Z,60.67
2023-04-15T10:45:48.792Z,60.55
2023-04-15T10:46:52.548Z,60.04
2023-04-15T10:47:59.615Z,60.91
2023-04-15T10:49:17.386Z,61.62
2023-04-15T10:50:19.732Z,64.66
2023-04-15T10:51:32.133Z,66.10
2023-04-15T10:52:34.029Z,64.65
2023-04-15T10:53:37.962Z,64.73
2023-04-15T10:54:39.903Z,65.34
2023-04-15T10:55:42.139Z,65.87
2023-04-15T10:56:45.760Z,67.18
2023-04-15T10:57:52.235Z,65.63
2023-04-15T10:58:54.137Z,67.10
2023-04-15T11:00:00.388Z,64.42
2023-04-15T11:01:03.516Z,65.11
2023-04-15T11:02:07.425Z,64.56
2023-04-15T11:03:10.001Z,65.72
2023-04-15T11:04:12.452Z,65.14
2023-04-15T11:05:16.372Z,65.84
2023-04-15T11:06:18.559Z,65.27
2023-04-15T11:07:52.967Z,65.23
2023-04-15T11:09:02.563Z,63.50
2023-04-15T11:10:30.115Z,64.04
2023-04-15T11:12:09.923Z,64.63
2023-04-15T11:13:11.812Z,62.71
2023-04-15T11:14:16.834Z,62.15
2023-04-15T11:15:27.844Z,62.95
2023-04-15T11:16:29.781Z,64.04
2023-04-15T11:17:32.054Z,64.52
2023-04-15T11:18:34.719Z,63.99
2023-04-15T11:19:40.313Z,61.92
2023-04-15T11:20:48.122Z,61.59
2023-04-15T11:21:50.029Z,61.31
2023-04-15T11:23:08.175Z,61.36
2023-04-15T11:24:28.008Z,59.87
2023-04-15T11:25:34.839Z,60.00
2023-04-15T11:26:37.551Z,60.21
2023-04-15T11:27:39.490Z,60.58
2023-04-15T11:28:45.137Z,60.36
2023-04-15T11:29:47.112Z,61.47
2023-04-15T11:30:49.524Z,60.26
2023-04-15T11:31:51.609Z,59.45
2023-04-15T11:32:55.942Z,60.96
2023-04-15T11:34:01.667Z,60.66
2023-04-15T11:35:03.676Z,61.30
2023-04-15T11:36:05.803Z,68.69
2023-04-15T11:37:08.059Z,65.03
2023-04-15T11:38:14.448Z,60.36
2023-04-15T11:39:16.781Z,60.79
2023-04-15T11:40:29.671Z,60.48
2023-04-15T11:41:31.672Z,61.03
2023-04-15T11:42:46.515Z,62.07
2023-04-15T11:43:51.977Z,61.97
2023-04-15T11:45:11.786Z,61.90
2023-04-15T11:46:13.733Z,62.61
2023-04-15T11:47:25.205Z,63.91
2023-04-15T11:48:29.745Z,62.69
2023-04-15T11:49:33.950Z,61.08
2023-04-15T11:50:37.473Z,60.83
2023-04-15T11:51:39.371Z,61.44
2023-04-15T11:52:41.502Z,61.13
2023-04-15T11:53:44.324Z,61.25
2023-04-15T11:54:46.221Z,61.27
2023-04-15T11:55:51.005Z,60.98
2023-04-15T11:56:54.615Z,61.99
2023-04-15T11:58:18.825Z,62.27
2023-04-15T11:59:20.745Z,60.73
2023-04-15T12:00:23.309Z,60.60
2023-04-15T12:01:36.525Z,60.81
2023-04-15T12:02:39.450Z,59.61
2023-04-15T12:03:44.013Z,59.84
2023-04-15T12:04:46.301Z,59.91
2023-04-15T12:06:13.377Z,59.33
2023-04-15T12:07:15.495Z,60.21
2023-04-15T12:08:17.351Z,60.08
2023-04-15T12:09:20.385Z,61.58
2023-04-15T12:10:24.892Z,61.31
2023-04-15T12:11:26.667Z,60.41
2023-04-15T12:12:29.100Z,60.60
2023-04-15T12:13:30.944Z,60.85
2023-04-15T12:14:33.785Z,59.92
2023-04-15T12:15:39.318Z,59.66
2023-04-15T12:16:49.559Z,59.42
2023-04-15T12:17:55.092Z,58.09
2023-04-15T12:19:01.603Z,59.45
2023-04-15T12:20:04.418Z,59.79
2023-04-15T12:21:12.409Z,59.62
2023-04-15T12:22:16.961Z,59.74
2023-04-15T12:23:21.763Z,60.44
2023-04-15T12:24:23.756Z,61.50
2023-04-15T12:25:35.628Z,61.60
2023-04-15T12:26:43.632Z,60.96
2023-04-15T12:27:52.010Z,61.88
2023-04-15T12:29:01.523Z,60.74
2023-04-15T12:30:05.324Z,60.36
2023-04-15T12:31:08.905Z,60.42
2023-04-15T12:32:12.088Z,60.57
2023-04-15T12:33:14.130Z,60.95
2023-04-15T12:34:16.867Z,61.19
2023-04-15T12:35:21.542Z,61.19
2023-04-15T12:36:24.049Z,60.44
2023-04-15T12:37:26.245Z,60.93
2023-04-15T12:38:28.130Z,60.52
2023-04-15T12:39:32.596Z,61.12
2023-04-15T12:40:34.566Z,60.52
2023-04-15T12:41:36.407Z,60.99
2023-04-15T12:42:38.300Z,60.78
2023-04-15T12:43:40.170Z,67.80
2023-04-15T12:44:42.423Z,70.33
2023-04-15T12:45:44.291Z,60.38
2023-04-15T12:46:46.887Z,64.80
2023-04-15T12:47:48.843Z,59.98
2023-04-15T12:48:51.374Z,60.76
2023-04-15T12:49:53.752Z,60.19
2023-04-15T12:50:55.644Z,60.63
2023-04-15T12:52:00.199Z,61.66
2023-04-15T12:53:03.633Z,63.18
2023-04-15T12:54:05.796Z,62.27
2023-04-15T12:55:08.520Z,62.15
2023-04-15T12:56:10.700Z,61.94
2023-04-15T12:57:12.559Z,61.43
2023-04-15T12:58:14.447Z,62.03
2023-04-15T12:59:18.521Z,69.79
2023-04-15T13:00:21.004Z,62.38
2023-04-15T13:01:23.180Z,62.61
2023-04-15T13:02:27.143Z,62.95
2023-04-15T13:03:29.194Z,62.29
2023-04-15T13:04:31.692Z,62.97
2023-04-15T13:05:34.100Z,62.41
2023-04-15T13:06:36.869Z,65.52
2023-04-15T13:07:39.069Z,71.19
2023-04-15T13:08:48.005Z,63.67
2023-04-15T13:09:57.209Z,59.75
2023-04-15T13:10:59.359Z,59.58
2023-04-15T13:12:01.373Z,61.50
2023-04-15T13:13:03.663Z,62.54
2023-04-15T13:14:08.605Z,62.94
2023-04-15T13:15:11.602Z,62.52
2023-04-15T13:16:13.854Z,62.33
2023-04-15T13:17:17.523Z,62.95
2023-04-15T13:18:19.527Z,62.45
2023-04-15T13:19:21.390Z,63.17
2023-04-15T13:20:23.406Z,63.46
2023-04-15T13:21:25.693Z,62.89
2023-04-15T13:22:27.562Z,61.08
2023-04-15T13:23:29.436Z,61.12
2023-04-15T13:24:31.890Z,60.62
2023-04-15T13:25:33.726Z,61.05
2023-04-15T13:26:36.286Z,59.08
2023-04-15T13:27:39.014Z,59.17
2023-04-15T13:28:40.938Z,58.93
2023-04-15T13:29:42.952Z,57.89
2023-04-15T13:30:45.807Z,57.87
2023-04-15T13:31:47.992Z,58.22
2023-04-15T13:32:51.271Z,58.31
2023-04-15T13:33:53.306Z,59.99
2023-04-15T13:34:56.267Z,60.85
2023-04-15T13:35:58.277Z,61.18